sensor_id;sensor_type;location;lat;lon;timestamp;P1;durP1;ratioP1;P2;durP2;ratioP2
12253;SDS011;6189;52.526;13.390;2023-04-01T00:02:40;2.20;;;1.97;;
12253;SDS011;6189;52.526;13.390;2023-04-01T00:05:26;2.10;;;1.87;;
12253;SDS011;6189;52.526;13.390;2023-04-01T00:08:12;3.23;;;1.60;;
12253;SDS011;6189;52.526;13.390;2023-04-01T00:10:57;2.77;;;1.83;;
12253;SDS011;6189;52.526;13.390;2023-04-01T00:13:44;4.13;;;1.90;;
12253;SDS011;6189;52.526;13.390;2023-04-01T00:16:31;2.93;;;2.00;;
12253;SDS011;6189;52.526;13.390;2023-04-01T00:19:16;2.20;;;1.87;;
12253;SDS011;6189;52.526;13.390;2023-04-01T00:22:02;2.60;;;1.70;;
12253;SDS011;6189;52.526;13.390;2023-04-01T00:24:47;2.27;;;1.80;;
12253;SDS011;6189;52.526;13.390;2023-04-01T00:27:33;2.43;;;1.80;;
12253;SDS011;6189;52.526;13.390;2023-04-01T00:30:19;2.30;;;1.80;;
12253;SDS011;6189;52.526;13.390;2023-04-01T00:33:06;5.27;;;1.80;;
12253;SDS011;6189;52.526;13.390;2023-04-01T00:35:52;3.37;;;1.90;;
12253;SDS011;6189;52.526;13.390;2023-04-01T00:38:38;2.83;;;1.80;;
12253;SDS011;6189;52.526;13.390;2023-04-01T00:41:24;5.30;;;2.23;;
12253;SDS011;6189;52.526;13.390;2023-04-01T00:44:16;4.30;;;1.90;;
12253;SDS011;6189;52.526;13.390;2023-04-01T00:47:04;2.33;;;1.83;;
12253;SDS011;6189;52.526;13.390;2023-04-01T00:49:51;4.53;;;2.00;;
12253;SDS011;6189;52.526;13.390;2023-04-01T00:52:39;2.97;;;2.13;;
12253;SDS011;6189;52.526;13.390;2023-04-01T00:55:26;3.70;;;1.90;;
12253;SDS011;6189;52.526;13.390;2023-04-01T00:58:15;4.07;;;2.10;;
12253;SDS011;6189;52.526;13.390;2023-04-01T01:01:03;2.57;;;1.83;;
12253;SDS011;6189;52.526;13.390;2023-04-01T01:03:50;2.77;;;1.67;;
12253;SDS011;6189;52.526;13.390;2023-04-01T01:06:42;2.30;;;1.97;;
12253;SDS011;6189;52.526;13.390;2023-04-01T01:09:38;3.63;;;2.17;;
12253;SDS011;6189;52.526;13.390;2023-04-01T01:12:31;2.43;;;1.90;;
12253;SDS011;6189;52.526;13.390;2023-04-01T01:15:25;2.40;;;1.87;;
12253;SDS011;6189;52.526;13.390;2023-04-01T01:18:17;4.40;;;2.13;;
12253;SDS011;6189;52.526;13.390;2023-04-01T01:21:21;2.53;;;2.03;;
12253;SDS011;6189;52.526;13.390;2023-04-01T01:24:42;3.60;;;2.07;;
12253;SDS011;6189;52.526;13.390;2023-04-01T01:27:49;3.63;;;2.27;;
12253;SDS011;6189;52.526;13.390;2023-04-01T01:30:43;2.20;;;1.90;;
12253;SDS011;6189;52.526;13.390;2023-04-01T01:33:46;3.93;;;1.93;;
12253;SDS011;6189;52.526;13.390;2023-04-01T01:36:43;3.70;;;2.00;;
12253;SDS011;6189;52.526;13.390;2023-04-01T01:39:31;2.30;;;1.80;;
12253;SDS011;6189;52.526;13.390;2023-04-01T01:42:19;3.17;;;1.97;;
12253;SDS011;6189;52.526;13.390;2023-04-01T01:45:07;4.03;;;2.00;;
12253;SDS011;6189;52.526;13.390;2023-04-01T01:47:55;2.27;;;2.03;;
12253;SDS011;6189;52.526;13.390;2023-04-01T01:50:43;3.37;;;2.27;;
12253;SDS011;6189;52.526;13.390;2023-04-01T01:53:31;4.03;;;2.00;;
12253;SDS011;6189;52.526;13.390;2023-04-01T01:56:17;2.67;;;1.70;;
12253;SDS011;6189;52.526;13.390;2023-04-01T01:59:06;3.30;;;2.27;;
12253;SDS011;6189;52.526;13.390;2023-04-01T02:01:55;3.63;;;1.97;;
12253;SDS011;6189;52.526;13.390;2023-04-01T02:04:43;4.90;;;2.00;;
12253;SDS011;6189;52.526;13.390;2023-04-01T02:07:31;4.03;;;1.93;;
12253;SDS011;6189;52.526;13.390;2023-04-01T02:10:22;2.40;;;1.97;;
12253;SDS011;6189;52.526;13.390;2023-04-01T02:13:11;4.43;;;1.73;;
12253;SDS011;6189;52.526;13.390;2023-04-01T02:16:05;3.13;;;1.93;;
12253;SDS011;6189;52.526;13.390;2023-04-01T02:18:54;2.70;;;1.93;;
12253;SDS011;6189;52.526;13.390;2023-04-01T02:21:41;2.00;;;1.70;;
12253;SDS011;6189;52.526;13.390;2023-04-01T02:24:28;3.43;;;1.77;;
12253;SDS011;6189;52.526;13.390;2023-04-01T02:27:18;4.23;;;2.53;;
12253;SDS011;6189;52.526;13.390;2023-04-01T02:30:05;2.00;;;1.63;;
12253;SDS011;6189;52.526;13.390;2023-04-01T02:32:52;3.77;;;2.03;;
12253;SDS011;6189;52.526;13.390;2023-04-01T02:35:39;3.17;;;1.97;;
12253;SDS011;6189;52.526;13.390;2023-04-01T02:38:26;4.00;;;2.00;;
12253;SDS011;6189;52.526;13.390;2023-04-01T02:41:11;4.37;;;2.17;;
12253;SDS011;6189;52.526;13.390;2023-04-01T02:43:58;3.50;;;1.93;;
12253;SDS011;6189;52.526;13.390;2023-04-01T02:46:44;5.53;;;2.17;;
12253;SDS011;6189;52.526;13.390;2023-04-01T02:49:29;4.40;;;1.93;;
12253;SDS011;6189;52.526;13.390;2023-04-01T02:52:15;3.03;;;2.00;;
12253;SDS011;6189;52.526;13.390;2023-04-01T02:55:01;3.43;;;1.70;;
12253;SDS011;6189;52.526;13.390;2023-04-01T02:57:47;2.90;;;1.97;;
12253;SDS011;6189;52.526;13.390;2023-04-01T03:00:34;2.97;;;2.17;;
12253;SDS011;6189;52.526;13.390;2023-04-01T03:03:20;4.00;;;1.97;;
12253;SDS011;6189;52.526;13.390;2023-04-01T03:06:05;5.07;;;1.90;;
12253;SDS011;6189;52.526;13.390;2023-04-01T03:08:51;3.50;;;1.80;;
12253;SDS011;6189;52.526;13.390;2023-04-01T03:11:37;2.83;;;2.10;;
12253;SDS011;6189;52.526;13.390;2023-04-01T03:14:24;4.83;;;1.90;;
12253;SDS011;6189;52.526;13.390;2023-04-01T03:17:11;2.83;;;1.93;;
12253;SDS011;6189;52.526;13.390;2023-04-01T03:19:57;4.90;;;2.10;;
12253;SDS011;6189;52.526;13.390;2023-04-01T03:22:42;2.73;;;2.03;;
12253;SDS011;6189;52.526;13.390;2023-04-01T03:25:28;2.93;;;1.70;;
12253;SDS011;6189;52.526;13.390;2023-04-01T03:28:13;2.20;;;1.80;;
12253;SDS011;6189;52.526;13.390;2023-04-01T03:30:59;3.27;;;1.87;;
12253;SDS011;6189;52.526;13.390;2023-04-01T03:33:46;3.27;;;2.20;;
12253;SDS011;6189;52.526;13.390;2023-04-01T03:36:32;2.97;;;2.10;;
12253;SDS011;6189;52.526;13.390;2023-04-01T03:39:18;3.27;;;1.83;;
12253;SDS011;6189;52.526;13.390;2023-04-01T03:42:03;4.90;;;2.47;;
12253;SDS011;6189;52.526;13.390;2023-04-01T03:44:50;2.80;;;1.83;;
12253;SDS011;6189;52.526;13.390;2023-04-01T03:47:36;3.07;;;2.10;;
12253;SDS011;6189;52.526;13.390;2023-04-01T03:50:23;2.50;;;1.90;;
12253;SDS011;6189;52.526;13.390;2023-04-01T03:53:09;4.10;;;2.20;;
12253;SDS011;6189;52.526;13.390;2023-04-01T03:55:55;3.40;;;1.80;;
12253;SDS011;6189;52.526;13.390;2023-04-01T03:58:41;2.97;;;2.20;;
12253;SDS011;6189;52.526;13.390;2023-04-01T04:01:26;3.03;;;1.90;;
12253;SDS011;6189;52.526;13.390;2023-04-01T04:04:13;4.83;;;1.87;;
12253;SDS011;6189;52.526;13.390;2023-04-01T04:07:00;3.63;;;2.17;;
12253;SDS011;6189;52.526;13.390;2023-04-01T04:09:46;4.87;;;2.30;;
12253;SDS011;6189;52.526;13.390;2023-04-01T04:12:32;3.13;;;2.33;;
12253;SDS011;6189;52.526;13.390;2023-04-01T04:15:17;3.03;;;2.10;;
12253;SDS011;6189;52.526;13.390;2023-04-01T04:18:03;4.90;;;1.87;;
12253;SDS011;6189;52.526;13.390;2023-04-01T04:20:49;3.70;;;2.27;;
12253;SDS011;6189;52.526;13.390;2023-04-01T04:23:36;5.03;;;2.10;;
12253;SDS011;6189;52.526;13.390;2023-04-01T04:26:22;3.67;;;2.20;;
12253;SDS011;6189;52.526;13.390;2023-04-01T04:29:07;4.50;;;2.10;;
12253;SDS011;6189;52.526;13.390;2023-04-01T04:31:53;3.10;;;2.00;;
12253;SDS011;6189;52.526;13.390;2023-04-01T04:34:39;6.07;;;2.37;;
12253;SDS011;6189;52.526;13.390;2023-04-01T04:37:24;3.77;;;2.53;;
12253;SDS011;6189;52.526;13.390;2023-04-01T04:40:12;4.03;;;2.40;;
12253;SDS011;6189;52.526;13.390;2023-04-01T04:42:58;3.90;;;2.60;;
12253;SDS011;6189;52.526;13.390;2023-04-01T04:45:43;6.57;;;2.77;;
12253;SDS011;6189;52.526;13.390;2023-04-01T04:48:29;4.73;;;2.53;;
12253;SDS011;6189;52.526;13.390;2023-04-01T04:51:15;4.47;;;2.20;;
12253;SDS011;6189;52.526;13.390;2023-04-01T04:54:02;4.03;;;2.40;;
12253;SDS011;6189;52.526;13.390;2023-04-01T04:56:50;3.57;;;2.30;;
12253;SDS011;6189;52.526;13.390;2023-04-01T04:59:36;4.53;;;2.70;;
12253;SDS011;6189;52.526;13.390;2023-04-01T05:02:22;5.10;;;2.60;;
12253;SDS011;6189;52.526;13.390;2023-04-01T05:05:08;4.17;;;2.33;;
12253;SDS011;6189;52.526;13.390;2023-04-01T05:07:54;5.80;;;2.90;;
12253;SDS011;6189;52.526;13.390;2023-04-01T05:10:40;5.27;;;2.40;;
12253;SDS011;6189;52.526;13.390;2023-04-01T05:13:27;4.87;;;2.50;;
12253;SDS011;6189;52.526;13.390;2023-04-01T05:16:13;3.63;;;2.57;;
12253;SDS011;6189;52.526;13.390;2023-04-01T05:19:00;4.07;;;2.60;;
12253;SDS011;6189;52.526;13.390;2023-04-01T05:21:46;4.10;;;3.00;;
12253;SDS011;6189;52.526;13.390;2023-04-01T05:24:32;6.20;;;2.80;;
12253;SDS011;6189;52.526;13.390;2023-04-01T05:27:18;3.87;;;2.40;;
12253;SDS011;6189;52.526;13.390;2023-04-01T05:30:06;3.80;;;2.30;;
12253;SDS011;6189;52.526;13.390;2023-04-01T05:32:52;5.10;;;2.53;;
12253;SDS011;6189;52.526;13.390;2023-04-01T05:35:38;5.40;;;2.80;;
12253;SDS011;6189;52.526;13.390;2023-04-01T05:38:23;3.53;;;2.47;;
12253;SDS011;6189;52.526;13.390;2023-04-01T05:41:09;3.67;;;2.40;;
12253;SDS011;6189;52.526;13.390;2023-04-01T05:43:55;3.90;;;2.50;;
12253;SDS011;6189;52.526;13.390;2023-04-01T05:46:42;6.87;;;3.00;;
12253;SDS011;6189;52.526;13.390;2023-04-01T05:49:28;5.77;;;3.03;;
12253;SDS011;6189;52.526;13.390;2023-04-01T05:52:14;4.47;;;3.00;;
12253;SDS011;6189;52.526;13.390;2023-04-01T05:55:00;4.70;;;2.53;;
12253;SDS011;6189;52.526;13.390;2023-04-01T05:57:46;7.27;;;2.77;;
12253;SDS011;6189;52.526;13.390;2023-04-01T06:00:32;4.77;;;2.63;;
12253;SDS011;6189;52.526;13.390;2023-04-01T06:03:19;3.17;;;2.53;;
12253;SDS011;6189;52.526;13.390;2023-04-01T06:06:04;5.60;;;2.80;;
12253;SDS011;6189;52.526;13.390;2023-04-01T06:09:00;4.10;;;2.30;;
12253;SDS011;6189;52.526;13.390;2023-04-01T06:12:01;6.10;;;2.50;;
12253;SDS011;6189;52.526;13.390;2023-04-01T06:15:09;6.20;;;2.80;;
12253;SDS011;6189;52.526;13.390;2023-04-01T06:18:12;5.70;;;2.63;;
12253;SDS011;6189;52.526;13.390;2023-04-01T06:21:44;5.07;;;2.67;;
12253;SDS011;6189;52.526;13.390;2023-04-01T06:24:57;8.10;;;3.10;;
12253;SDS011;6189;52.526;13.390;2023-04-01T06:28:01;4.63;;;2.50;;
12253;SDS011;6189;52.526;13.390;2023-04-01T06:31:05;7.47;;;2.60;;
12253;SDS011;6189;52.526;13.390;2023-04-01T06:33:59;5.20;;;3.00;;
12253;SDS011;6189;52.526;13.390;2023-04-01T06:37:05;6.30;;;2.60;;
12253;SDS011;6189;52.526;13.390;2023-04-01T06:40:04;4.17;;;2.60;;
12253;SDS011;6189;52.526;13.390;2023-04-01T06:43:06;4.60;;;2.60;;
12253;SDS011;6189;52.526;13.390;2023-04-01T06:45:59;4.50;;;2.70;;
12253;SDS011;6189;52.526;13.390;2023-04-01T06:48:56;5.27;;;3.23;;
12253;SDS011;6189;52.526;13.390;2023-04-01T06:51:52;6.80;;;3.03;;
12253;SDS011;6189;52.526;13.390;2023-04-01T06:54:46;6.67;;;3.03;;
12253;SDS011;6189;52.526;13.390;2023-04-01T06:57:35;4.60;;;3.00;;
12253;SDS011;6189;52.526;13.390;2023-04-01T07:00:27;4.67;;;2.83;;
12253;SDS011;6189;52.526;13.390;2023-04-01T07:03:19;5.40;;;2.80;;
12253;SDS011;6189;52.526;13.390;2023-04-01T07:06:09;6.37;;;2.70;;
12253;SDS011;6189;52.526;13.390;2023-04-01T07:09:00;5.63;;;3.03;;
12253;SDS011;6189;52.526;13.390;2023-04-01T07:11:51;5.00;;;2.67;;
12253;SDS011;6189;52.526;13.390;2023-04-01T07:14:45;6.30;;;2.73;;
12253;SDS011;6189;52.526;13.390;2023-04-01T07:17:35;4.97;;;2.60;;
12253;SDS011;6189;52.526;13.390;2023-04-01T07:20:24;6.20;;;2.77;;
12253;SDS011;6189;52.526;13.390;2023-04-01T07:23:15;3.77;;;2.60;;
12253;SDS011;6189;52.526;13.390;2023-04-01T07:26:11;4.40;;;2.40;;
12253;SDS011;6189;52.526;13.390;2023-04-01T07:29:04;4.43;;;2.13;;
12253;SDS011;6189;52.526;13.390;2023-04-01T07:31:58;5.70;;;2.60;;
12253;SDS011;6189;52.526;13.390;2023-04-01T07:35:07;4.90;;;2.50;;
12253;SDS011;6189;52.526;13.390;2023-04-01T07:38:16;4.17;;;2.53;;
12253;SDS011;6189;52.526;13.390;2023-04-01T07:41:09;4.57;;;3.03;;
12253;SDS011;6189;52.526;13.390;2023-04-01T07:44:06;4.27;;;3.27;;
12253;SDS011;6189;52.526;13.390;2023-04-01T07:47:02;5.87;;;3.10;;
12253;SDS011;6189;52.526;13.390;2023-04-01T07:49:59;4.33;;;2.60;;
12253;SDS011;6189;52.526;13.390;2023-04-01T07:52:56;3.90;;;2.77;;
12253;SDS011;6189;52.526;13.390;2023-04-01T07:55:50;4.17;;;2.60;;
12253;SDS011;6189;52.526;13.390;2023-04-01T07:58:47;3.63;;;2.50;;
12253;SDS011;6189;52.526;13.390;2023-04-01T08:01:42;5.20;;;2.60;;
12253;SDS011;6189;52.526;13.390;2023-04-01T08:04:36;3.77;;;2.50;;
12253;SDS011;6189;52.526;13.390;2023-04-01T08:07:35;5.03;;;2.53;;
12253;SDS011;6189;52.526;13.390;2023-04-01T08:10:30;3.40;;;2.50;;
12253;SDS011;6189;52.526;13.390;2023-04-01T08:13:23;4.70;;;2.80;;
12253;SDS011;6189;52.526;13.390;2023-04-01T08:16:17;5.10;;;2.80;;
12253;SDS011;6189;52.526;13.390;2023-04-01T08:19:14;3.73;;;2.60;;
12253;SDS011;6189;52.526;13.390;2023-04-01T08:22:11;3.07;;;2.50;;
12253;SDS011;6189;52.526;13.390;2023-04-01T08:25:04;3.33;;;2.10;;
12253;SDS011;6189;52.526;13.390;2023-04-01T08:27:53;3.20;;;2.03;;
12253;SDS011;6189;52.526;13.390;2023-04-01T08:30:42;1.80;;;1.70;;
12253;SDS011;6189;52.526;13.390;2023-04-01T08:33:32;1.70;;;1.57;;
12253;SDS011;6189;52.526;13.390;2023-04-01T08:36:20;2.20;;;2.00;;
12253;SDS011;6189;52.526;13.390;2023-04-01T08:39:09;2.30;;;2.10;;
12253;SDS011;6189;52.526;13.390;2023-04-01T08:42:04;2.37;;;2.17;;
12253;SDS011;6189;52.526;13.390;2023-04-01T08:45:07;3.27;;;2.97;;
12253;SDS011;6189;52.526;13.390;2023-04-01T08:48:13;4.00;;;3.60;;
12253;SDS011;6189;52.526;13.390;2023-04-01T08:54:47;5.47;;;4.60;;
12253;SDS011;6189;52.526;13.390;2023-04-01T08:58:08;5.83;;;4.77;;
12253;SDS011;6189;52.526;13.390;2023-04-01T09:01:13;6.50;;;4.83;;
12253;SDS011;6189;52.526;13.390;2023-04-01T09:04:13;6.00;;;5.40;;
12253;SDS011;6189;52.526;13.390;2023-04-01T09:07:20;6.80;;;6.13;;
12253;SDS011;6189;52.526;13.390;2023-04-01T09:13:42;7.53;;;6.73;;
12253;SDS011;6189;52.526;13.390;2023-04-01T09:16:56;7.30;;;6.60;;
12253;SDS011;6189;52.526;13.390;2023-04-01T09:20:01;9.33;;;6.97;;
12253;SDS011;6189;52.526;13.390;2023-04-01T09:23:10;7.83;;;6.43;;
12253;SDS011;6189;52.526;13.390;2023-04-01T09:26:07;8.57;;;7.07;;
12253;SDS011;6189;52.526;13.390;2023-04-01T09:29:05;6.90;;;6.13;;
12253;SDS011;6189;52.526;13.390;2023-04-01T09:32:12;6.97;;;6.27;;
12253;SDS011;6189;52.526;13.390;2023-04-01T09:35:30;7.10;;;6.40;;
12253;SDS011;6189;52.526;13.390;2023-04-01T09:38:28;6.50;;;5.90;;
12253;SDS011;6189;52.526;13.390;2023-04-01T09:41:19;7.33;;;6.60;;
12253;SDS011;6189;52.526;13.390;2023-04-01T09:44:18;7.70;;;7.00;;
12253;SDS011;6189;52.526;13.390;2023-04-01T09:47:14;7.60;;;7.00;;
12253;SDS011;6189;52.526;13.390;2023-04-01T09:50:16;7.57;;;6.77;;
12253;SDS011;6189;52.526;13.390;2023-04-01T09:53:26;7.50;;;6.83;;
12253;SDS011;6189;52.526;13.390;2023-04-01T10:06:32;9.77;;;8.77;;
12253;SDS011;6189;52.526;13.390;2023-04-01T10:09:54;9.23;;;8.23;;
12253;SDS011;6189;52.526;13.390;2023-04-01T10:19:56;7.93;;;7.23;;
12253;SDS011;6189;52.526;13.390;2023-04-01T10:22:59;7.97;;;7.27;;
12253;SDS011;6189;52.526;13.390;2023-04-01T10:26:25;7.90;;;7.20;;
12253;SDS011;6189;52.526;13.390;2023-04-01T10:32:53;12.27;;;9.03;;
12253;SDS011;6189;52.526;13.390;2023-04-01T10:36:16;25.73;;;15.20;;
12253;SDS011;6189;52.526;13.390;2023-04-01T10:39:37;20.57;;;13.93;;
12253;SDS011;6189;52.526;13.390;2023-04-01T10:46:16;11.43;;;10.07;;
12253;SDS011;6189;52.526;13.390;2023-04-01T10:52:46;9.60;;;8.17;;
12253;SDS011;6189;52.526;13.390;2023-04-01T10:56:29;10.27;;;7.73;;
12253;SDS011;6189;52.526;13.390;2023-04-01T11:13:25;8.13;;;7.37;;
12253;SDS011;6189;52.526;13.390;2023-04-01T11:23:22;7.30;;;6.70;;
12253;SDS011;6189;52.526;13.390;2023-04-01T11:26:33;6.73;;;6.23;;
12253;SDS011;6189;52.526;13.390;2023-04-01T11:29:43;6.77;;;6.20;;
12253;SDS011;6189;52.526;13.390;2023-04-01T11:32:45;6.87;;;6.17;;
12253;SDS011;6189;52.526;13.390;2023-04-01T11:35:42;6.07;;;5.57;;
12253;SDS011;6189;52.526;13.390;2023-04-01T11:41:56;6.07;;;5.57;;
12253;SDS011;6189;52.526;13.390;2023-04-01T11:44:56;5.67;;;5.17;;
12253;SDS011;6189;52.526;13.390;2023-04-01T11:48:00;5.93;;;5.47;;
12253;SDS011;6189;52.526;13.390;2023-04-01T11:51:04;6.40;;;5.80;;
12253;SDS011;6189;52.526;13.390;2023-04-01T11:54:06;5.90;;;5.40;;
12253;SDS011;6189;52.526;13.390;2023-04-01T11:57:09;6.70;;;6.10;;
12253;SDS011;6189;52.526;13.390;2023-04-01T12:00:26;6.63;;;6.03;;
12253;SDS011;6189;52.526;13.390;2023-04-01T12:03:38;8.20;;;7.10;;
12253;SDS011;6189;52.526;13.390;2023-04-01T12:06:41;7.60;;;6.90;;
12253;SDS011;6189;52.526;13.390;2023-04-01T12:09:34;9.10;;;8.27;;
12253;SDS011;6189;52.526;13.390;2023-04-01T12:12:31;8.90;;;8.10;;
12253;SDS011;6189;52.526;13.390;2023-04-01T12:15:29;8.57;;;7.77;;
12253;SDS011;6189;52.526;13.390;2023-04-01T12:18:21;7.47;;;6.87;;
12253;SDS011;6189;52.526;13.390;2023-04-01T12:21:14;7.70;;;7.03;;
12253;SDS011;6189;52.526;13.390;2023-04-01T12:24:29;7.57;;;6.87;;
12253;SDS011;6189;52.526;13.390;2023-04-01T12:27:41;7.50;;;6.43;;
12253;SDS011;6189;52.526;13.390;2023-04-01T12:30:33;6.23;;;5.63;;
12253;SDS011;6189;52.526;13.390;2023-04-01T12:36:50;6.10;;;5.17;;
12253;SDS011;6189;52.526;13.390;2023-04-01T12:39:50;6.40;;;5.80;;
12253;SDS011;6189;52.526;13.390;2023-04-01T12:42:53;6.90;;;6.30;;
12253;SDS011;6189;52.526;13.390;2023-04-01T12:45:49;7.47;;;6.77;;
12253;SDS011;6189;52.526;13.390;2023-04-01T12:48:53;8.13;;;7.40;;
12253;SDS011;6189;52.526;13.390;2023-04-01T12:52:05;8.43;;;7.63;;
12253;SDS011;6189;52.526;13.390;2023-04-01T12:55:12;8.87;;;8.13;;
12253;SDS011;6189;52.526;13.390;2023-04-01T13:01:45;9.23;;;8.43;;
12253;SDS011;6189;52.526;13.390;2023-04-01T13:08:08;9.70;;;8.80;;
12253;SDS011;6189;52.526;13.390;2023-04-01T13:11:08;9.77;;;8.87;;
12253;SDS011;6189;52.526;13.390;2023-04-01T13:14:03;9.87;;;9.03;;
12253;SDS011;6189;52.526;13.390;2023-04-01T13:17:06;9.37;;;8.47;;
12253;SDS011;6189;52.526;13.390;2023-04-01T13:20:00;10.17;;;9.20;;
12253;SDS011;6189;52.526;13.390;2023-04-01T13:22:54;10.00;;;9.10;;
12253;SDS011;6189;52.526;13.390;2023-04-01T13:25:53;9.20;;;8.40;;
12253;SDS011;6189;52.526;13.390;2023-04-01T13:28:52;9.50;;;8.53;;
12253;SDS011;6189;52.526;13.390;2023-04-01T13:31:51;9.13;;;8.30;;
12253;SDS011;6189;52.526;13.390;2023-04-01T13:34:48;9.33;;;8.43;;
12253;SDS011;6189;52.526;13.390;2023-04-01T13:37:48;8.10;;;7.40;;
12253;SDS011;6189;52.526;13.390;2023-04-01T13:40:54;8.93;;;7.50;;
12253;SDS011;6189;52.526;13.390;2023-04-01T13:43:52;8.03;;;7.20;;
12253;SDS011;6189;52.526;13.390;2023-04-01T13:46:48;8.53;;;7.63;;
12253;SDS011;6189;52.526;13.390;2023-04-01T13:49:59;7.33;;;6.73;;
12253;SDS011;6189;52.526;13.390;2023-04-01T13:53:14;7.00;;;6.40;;
12253;SDS011;6189;52.526;13.390;2023-04-01T13:56:23;6.70;;;6.10;;
12253;SDS011;6189;52.526;13.390;2023-04-01T13:59:26;7.37;;;6.67;;
12253;SDS011;6189;52.526;13.390;2023-04-01T14:02:45;6.97;;;6.30;;
12253;SDS011;6189;52.526;13.390;2023-04-01T14:05:39;7.73;;;7.03;;
12253;SDS011;6189;52.526;13.390;2023-04-01T14:12:02;9.03;;;7.50;;
12253;SDS011;6189;52.526;13.390;2023-04-01T14:14:59;6.80;;;6.20;;
12253;SDS011;6189;52.526;13.390;2023-04-01T14:18:12;6.20;;;5.60;;
12253;SDS011;6189;52.526;13.390;2023-04-01T14:21:10;6.93;;;6.10;;
12253;SDS011;6189;52.526;13.390;2023-04-01T14:24:08;6.60;;;6.00;;
12253;SDS011;6189;52.526;13.390;2023-04-01T14:30:23;6.57;;;5.97;;
12253;SDS011;6189;52.526;13.390;2023-04-01T14:33:35;5.63;;;5.10;;
12253;SDS011;6189;52.526;13.390;2023-04-01T14:36:29;4.90;;;4.50;;
12253;SDS011;6189;52.526;13.390;2023-04-01T14:39:29;4.80;;;4.37;;
12253;SDS011;6189;52.526;13.390;2023-04-01T14:42:35;5.47;;;4.30;;
12253;SDS011;6189;52.526;13.390;2023-04-01T14:45:42;4.20;;;3.80;;
12253;SDS011;6189;52.526;13.390;2023-04-01T14:48:35;6.47;;;4.70;;
12253;SDS011;6189;52.526;13.390;2023-04-01T14:51:31;5.03;;;4.63;;
12253;SDS011;6189;52.526;13.390;2023-04-01T14:54:20;4.93;;;4.30;;
12253;SDS011;6189;52.526;13.390;2023-04-01T14:57:16;5.13;;;4.33;;
12253;SDS011;6189;52.526;13.390;2023-04-01T15:00:12;6.47;;;4.73;;
12253;SDS011;6189;52.526;13.390;2023-04-01T15:03:01;7.70;;;5.37;;
12253;SDS011;6189;52.526;13.390;2023-04-01T15:05:56;6.00;;;5.40;;
12253;SDS011;6189;52.526;13.390;2023-04-01T15:08:53;5.37;;;4.90;;
12253;SDS011;6189;52.526;13.390;2023-04-01T15:11:48;5.83;;;5.30;;
12253;SDS011;6189;52.526;13.390;2023-04-01T15:14:46;5.03;;;4.53;;
12253;SDS011;6189;52.526;13.390;2023-04-01T15:18:00;5.40;;;4.83;;
12253;SDS011;6189;52.526;13.390;2023-04-01T15:21:02;6.13;;;4.40;;
12253;SDS011;6189;52.526;13.390;2023-04-01T15:24:06;5.00;;;4.37;;
12253;SDS011;6189;52.526;13.390;2023-04-01T15:30:17;5.43;;;4.40;;
12253;SDS011;6189;52.526;13.390;2023-04-01T15:36:41;5.53;;;4.97;;
12253;SDS011;6189;52.526;13.390;2023-04-01T15:39:38;5.00;;;4.50;;
12253;SDS011;6189;52.526;13.390;2023-04-01T15:42:42;5.60;;;5.10;;
12253;SDS011;6189;52.526;13.390;2023-04-01T15:45:43;5.13;;;4.63;;
12253;SDS011;6189;52.526;13.390;2023-04-01T15:48:38;5.90;;;5.40;;
12253;SDS011;6189;52.526;13.390;2023-04-01T15:51:43;6.23;;;5.63;;
12253;SDS011;6189;52.526;13.390;2023-04-01T15:54:47;6.00;;;4.83;;
12253;SDS011;6189;52.526;13.390;2023-04-01T15:58:02;4.97;;;4.47;;
12253;SDS011;6189;52.526;13.390;2023-04-01T16:01:09;5.70;;;4.87;;
12253;SDS011;6189;52.526;13.390;2023-04-01T16:04:06;6.03;;;5.43;;
12253;SDS011;6189;52.526;13.390;2023-04-01T16:07:17;5.57;;;4.90;;
12253;SDS011;6189;52.526;13.390;2023-04-01T16:10:17;6.10;;;5.30;;
12253;SDS011;6189;52.526;13.390;2023-04-01T16:13:15;4.67;;;4.27;;
12253;SDS011;6189;52.526;13.390;2023-04-01T16:16:12;6.53;;;4.90;;
12253;SDS011;6189;52.526;13.390;2023-04-01T16:19:08;4.57;;;4.17;;
12253;SDS011;6189;52.526;13.390;2023-04-01T16:22:11;4.57;;;4.13;;
12253;SDS011;6189;52.526;13.390;2023-04-01T16:25:14;5.70;;;4.40;;
12253;SDS011;6189;52.526;13.390;2023-04-01T16:28:14;5.67;;;4.40;;
12253;SDS011;6189;52.526;13.390;2023-04-01T16:31:05;5.20;;;4.70;;
12253;SDS011;6189;52.526;13.390;2023-04-01T16:33:58;5.03;;;4.20;;
12253;SDS011;6189;52.526;13.390;2023-04-01T16:36:50;5.97;;;4.90;;
12253;SDS011;6189;52.526;13.390;2023-04-01T16:39:43;5.13;;;4.20;;
12253;SDS011;6189;52.526;13.390;2023-04-01T16:42:39;4.03;;;3.57;;
12253;SDS011;6189;52.526;13.390;2023-04-01T16:45:31;4.33;;;3.93;;
12253;SDS011;6189;52.526;13.390;2023-04-01T16:48:22;5.60;;;4.33;;
12253;SDS011;6189;52.526;13.390;2023-04-01T16:51:13;4.50;;;3.70;;
12253;SDS011;6189;52.526;13.390;2023-04-01T16:54:02;6.80;;;3.43;;
12253;SDS011;6189;52.526;13.390;2023-04-01T16:56:56;7.73;;;4.13;;
12253;SDS011;6189;52.526;13.390;2023-04-01T16:59:54;3.87;;;3.40;;
12253;SDS011;6189;52.526;13.390;2023-04-01T17:02:46;4.40;;;3.80;;
12253;SDS011;6189;52.526;13.390;2023-04-01T17:05:42;5.90;;;3.60;;
12253;SDS011;6189;52.526;13.390;2023-04-01T17:08:47;4.30;;;3.90;;
12253;SDS011;6189;52.526;13.390;2023-04-01T17:11:42;4.00;;;3.60;;
12253;SDS011;6189;52.526;13.390;2023-04-01T17:14:37;4.40;;;4.00;;
12253;SDS011;6189;52.526;13.390;2023-04-01T17:17:36;5.87;;;3.90;;
12253;SDS011;6189;52.526;13.390;2023-04-01T17:20:31;4.47;;;3.47;;
12253;SDS011;6189;52.526;13.390;2023-04-01T17:23:27;4.13;;;3.73;;
12253;SDS011;6189;52.526;13.390;2023-04-01T17:26:20;5.30;;;4.20;;
12253;SDS011;6189;52.526;13.390;2023-04-01T17:29:15;5.13;;;4.03;;
12253;SDS011;6189;52.526;13.390;2023-04-01T17:32:09;4.40;;;4.00;;
12253;SDS011;6189;52.526;13.390;2023-04-01T17:35:03;5.50;;;4.27;;
12253;SDS011;6189;52.526;13.390;2023-04-01T17:37:56;5.23;;;4.73;;
12253;SDS011;6189;52.526;13.390;2023-04-01T17:40:56;5.97;;;3.97;;
12253;SDS011;6189;52.526;13.390;2023-04-01T17:43:48;4.90;;;4.03;;
12253;SDS011;6189;52.526;13.390;2023-04-01T17:46:48;7.03;;;4.53;;
12253;SDS011;6189;52.526;13.390;2023-04-01T17:49:58;5.47;;;4.27;;
12253;SDS011;6189;52.526;13.390;2023-04-01T17:53:03;4.60;;;4.10;;
12253;SDS011;6189;52.526;13.390;2023-04-01T17:56:03;6.00;;;4.60;;
12253;SDS011;6189;52.526;13.390;2023-04-01T17:58:58;4.30;;;3.83;;
12253;SDS011;6189;52.526;13.390;2023-04-01T18:01:49;5.73;;;4.37;;
12253;SDS011;6189;52.526;13.390;2023-04-01T18:04:46;4.57;;;3.90;;
12253;SDS011;6189;52.526;13.390;2023-04-01T18:07:55;5.63;;;4.53;;
12253;SDS011;6189;52.526;13.390;2023-04-01T18:10:57;6.53;;;4.77;;
12253;SDS011;6189;52.526;13.390;2023-04-01T18:13:52;4.50;;;4.10;;
12253;SDS011;6189;52.526;13.390;2023-04-01T18:16:55;5.93;;;4.23;;
12253;SDS011;6189;52.526;13.390;2023-04-01T18:20:00;4.80;;;4.30;;
12253;SDS011;6189;52.526;13.390;2023-04-01T18:22:57;9.70;;;4.67;;
12253;SDS011;6189;52.526;13.390;2023-04-01T18:25:46;4.47;;;3.87;;
12253;SDS011;6189;52.526;13.390;2023-04-01T18:28:36;5.73;;;4.27;;
12253;SDS011;6189;52.526;13.390;2023-04-01T18:31:24;6.47;;;4.83;;
12253;SDS011;6189;52.526;13.390;2023-04-01T18:34:18;8.13;;;5.10;;
12253;SDS011;6189;52.526;13.390;2023-04-01T18:37:24;6.13;;;4.63;;
12253;SDS011;6189;52.526;13.390;2023-04-01T18:40:17;7.60;;;5.33;;
12253;SDS011;6189;52.526;13.390;2023-04-01T18:43:11;5.83;;;4.70;;
12253;SDS011;6189;52.526;13.390;2023-04-01T18:46:07;6.47;;;4.77;;
12253;SDS011;6189;52.526;13.390;2023-04-01T18:49:05;5.90;;;4.83;;
12253;SDS011;6189;52.526;13.390;2023-04-01T18:51:59;7.27;;;4.70;;
12253;SDS011;6189;52.526;13.390;2023-04-01T18:58:18;7.37;;;5.57;;
12253;SDS011;6189;52.526;13.390;2023-04-01T19:01:13;6.77;;;4.83;;
12253;SDS011;6189;52.526;13.390;2023-04-01T19:04:08;7.43;;;5.77;;